createdAt,value
2019-05-19T00:02:25.352Z,31.77
2019-05-19T00:04:52.449Z,33.98
2019-05-19T00:07:19.535Z,33.10
2019-05-19T00:09:47.587Z,33.63
2019-05-19T00:12:15.385Z,34.08
2019-05-19T00:14:42.507Z,35.75
2019-05-19T00:17:09.927Z,33.85
2019-05-19T00:19:37.118Z,35.50
2019-05-19T00:22:04.267Z,34.92
2019-05-19T00:24:31.495Z,36.42
2019-05-19T00:26:58.467Z,34.98
2019-05-19T00:29:25.447Z,36.80
2019-05-19T00:31:52.495Z,35.40
2019-05-19T00:34:19.573Z,36.08
2019-05-19T00:36:46.542Z,35.25
2019-05-19T00:39:13.623Z,37.70
2019-05-19T00:41:40.658Z,37.15
2019-05-19T00:44:08.254Z,35.35
2019-05-19T00:46:35.325Z,37.00
2019-05-19T00:49:02.414Z,39.20
2019-05-19T00:51:29.851Z,38.63
2019-05-19T00:53:57.578Z,36.80
2019-05-19T00:56:25.051Z,41.05
2019-05-19T00:58:54.157Z,37.58
2019-05-19T01:01:21.228Z,38.02
2019-05-19T01:03:48.244Z,37.28
2019-05-19T01:06:16.322Z,36.03
2019-05-19T01:08:43.475Z,37.65
2019-05-19T01:11:10.711Z,37.23
2019-05-19T01:13:38.386Z,38.92
2019-05-19T01:16:06.599Z,34.75
2019-05-19T01:18:33.756Z,37.75
2019-05-19T01:21:00.927Z,36.45
2019-05-19T01:23:29.369Z,36.45
2019-05-19T01:25:56.343Z,38.30
2019-05-19T01:28:23.610Z,38.80
2019-05-19T01:30:50.593Z,37.15
2019-05-19T01:33:17.600Z,35.52
2019-05-19T01:35:44.578Z,37.80
2019-05-19T01:38:11.913Z,35.50
2019-05-19T01:40:38.901Z,35.60
2019-05-19T01:43:06.329Z,34.13
2019-05-19T01:45:33.487Z,33.67
2019-05-19T01:48:00.666Z,33.35
2019-05-19T01:50:28.083Z,32.13
2019-05-19T01:52:55.080Z,34.20
2019-05-19T01:55:22.147Z,34.65
2019-05-19T01:57:49.122Z,31.65
2019-05-19T02:00:16.812Z,31.82
2019-05-19T02:02:43.886Z,31.85
2019-05-19T02:05:11.085Z,33.02
2019-05-19T02:07:39.279Z,32.00
2019-05-19T02:10:06.595Z,33.80
2019-05-19T02:12:33.898Z,32.65
2019-05-19T02:15:02.450Z,33.85
2019-05-19T02:17:31.046Z,31.20
2019-05-19T02:19:58.100Z,32.83
2019-05-19T02:22:25.402Z,32.50
2019-05-19T02:24:52.443Z,32.42
2019-05-19T02:27:19.482Z,30.80
2019-05-19T02:29:46.796Z,28.38
2019-05-19T02:32:14.368Z,30.72
2019-05-19T02:34:41.445Z,29.18
2019-05-19T02:37:08.561Z,31.23
2019-05-19T02:39:35.607Z,27.82
2019-05-19T02:42:03.343Z,27.98
2019-05-19T02:44:32.279Z,28.10
2019-05-19T02:47:00.716Z,26.70
2019-05-19T02:49:29.707Z,28.10
2019-05-19T02:51:58.486Z,29.30
2019-05-19T02:54:27.037Z,28.98
2019-05-19T02:56:56.033Z,28.15
2019-05-19T02:59:24.143Z,28.65
2019-05-19T03:02:02.854Z,25.75
2019-05-19T03:04:30.335Z,27.55
2019-05-19T03:06:57.409Z,25.15
2019-05-19T03:09:24.531Z,25.62
2019-05-19T03:11:51.566Z,23.95
2019-05-19T03:14:18.913Z,26.42
2019-05-19T03:16:45.865Z,26.55
2019-05-19T03:19:13.478Z,26.93
2019-05-19T03:21:40.839Z,26.73
2019-05-19T03:24:08.028Z,26.62
2019-05-19T03:26:35.100Z,23.90
2019-05-19T03:29:02.157Z,25.00
2019-05-19T03:31:53.976Z,24.90
2019-05-19T03:34:21.272Z,23.62
2019-05-19T03:36:48.289Z,23.47
2019-05-19T03:39:15.369Z,22.48
2019-05-19T03:41:42.427Z,22.98
2019-05-19T03:44:09.416Z,23.15
2019-05-19T03:46:36.412Z,21.95
2019-05-19T03:49:03.817Z,21.00
2019-05-19T03:51:32.022Z,21.25
2019-05-19T03:53:59.213Z,22.25
2019-05-19T03:56:26.467Z,21.85
2019-05-19T03:58:53.712Z,21.80
2019-05-19T04:01:21.211Z,21.77
2019-05-19T04:03:48.301Z,22.05
2019-05-19T04:06:15.407Z,21.20
2019-05-19T04:08:42.522Z,21.87
2019-05-19T04:11:09.576Z,20.97
2019-05-19T04:13:36.559Z,22.42
2019-05-19T04:16:03.658Z,22.20
2019-05-19T04:18:30.741Z,22.22
2019-05-19T04:20:57.895Z,21.35
2019-05-19T04:23:24.883Z,21.45
2019-05-19T04:25:51.852Z,21.17
2019-05-19T04:28:18.830Z,21.12
2019-05-19T04:30:45.948Z,21.97
2019-05-19T04:33:13.499Z,19.35
2019-05-19T04:35:40.602Z,20.43
2019-05-19T04:38:07.614Z,19.00
2019-05-19T04:40:34.675Z,20.55
2019-05-19T04:43:01.780Z,20.25
2019-05-19T04:45:29.003Z,19.00
2019-05-19T04:47:57.068Z,19.12
2019-05-19T04:50:24.063Z,19.30
2019-05-19T04:52:51.214Z,19.05
2019-05-19T04:55:18.455Z,18.48
2019-05-19T04:57:46.118Z,18.02
2019-05-19T05:00:13.446Z,20.50
2019-05-19T05:02:40.685Z,19.02
2019-05-19T05:05:08.391Z,18.45
2019-05-19T05:07:35.380Z,17.75
2019-05-19T05:10:03.197Z,19.90
2019-05-19T05:12:30.280Z,19.45
2019-05-19T05:14:57.255Z,18.95
2019-05-19T05:17:24.361Z,18.17
2019-05-19T05:19:51.447Z,18.45
2019-05-19T05:22:22.225Z,17.80
2019-05-19T05:24:48.461Z,17.82
2019-05-19T05:27:15.604Z,17.95
2019-05-19T05:29:43.694Z,17.15
2019-05-19T05:32:11.025Z,16.50
2019-05-19T05:34:38.397Z,17.25
2019-05-19T05:37:05.376Z,16.97
2019-05-19T05:39:32.582Z,16.67
2019-05-19T05:41:59.642Z,17.25
2019-05-19T05:44:26.677Z,17.67
2019-05-19T05:46:53.827Z,16.30
2019-05-19T05:49:20.866Z,16.30
2019-05-19T05:51:47.950Z,15.45
2019-05-19T05:54:15.168Z,16.02
2019-05-19T05:56:42.513Z,15.72
2019-05-19T05:59:09.474Z,15.53
2019-05-19T06:01:36.471Z,17.30
2019-05-19T06:04:03.659Z,15.63
2019-05-19T06:06:30.780Z,16.30
2019-05-19T06:08:58.019Z,17.32
2019-05-19T06:11:25.215Z,16.67
2019-05-19T06:13:52.374Z,15.93
2019-05-19T06:16:19.402Z,15.80
2019-05-19T06:18:46.840Z,15.53
2019-05-19T06:21:13.822Z,15.32
2019-05-19T06:23:40.799Z,16.30
2019-05-19T06:26:08.139Z,16.20
2019-05-19T06:28:35.557Z,16.67
2019-05-19T06:31:02.657Z,15.53
2019-05-19T06:33:30.532Z,16.02
2019-05-19T06:35:57.899Z,16.27
2019-05-19T06:38:25.257Z,16.52
2019-05-19T06:40:52.226Z,16.07
2019-05-19T06:43:19.426Z,16.07
2019-05-19T06:45:46.702Z,15.65
2019-05-19T06:48:13.889Z,15.23
2019-05-19T06:50:41.137Z,15.65
2019-05-19T06:53:13.944Z,15.83
2019-05-19T06:55:38.205Z,15.60
2019-05-19T06:58:05.522Z,15.48
2019-05-19T07:00:32.599Z,15.40
2019-05-19T07:02:59.667Z,16.25
2019-05-19T07:05:26.794Z,14.47
2019-05-19T07:07:54.591Z,15.30
2019-05-19T07:10:21.663Z,14.38
2019-05-19T07:12:48.651Z,15.13
2019-05-19T07:15:15.938Z,14.90
2019-05-19T07:17:43.205Z,14.60
2019-05-19T07:20:10.305Z,15.15
2019-05-19T07:22:37.818Z,14.47
2019-05-19T07:25:05.307Z,13.70
2019-05-19T07:27:32.980Z,14.47
2019-05-19T07:30:00.047Z,12.80
2019-05-19T07:32:27.366Z,13.22
2019-05-19T07:34:54.400Z,13.55
2019-05-19T07:37:21.475Z,13.93
2019-05-19T07:39:48.835Z,12.90
2019-05-19T07:42:15.879Z,12.70
2019-05-19T07:44:45.272Z,13.30
2019-05-19T07:47:12.211Z,13.65
2019-05-19T07:49:39.195Z,12.53
2019-05-19T07:52:06.492Z,13.80
2019-05-19T07:54:33.592Z,13.30
2019-05-19T07:57:00.615Z,13.83
2019-05-19T07:59:28.283Z,12.80
2019-05-19T08:01:56.231Z,12.78
2019-05-19T08:04:23.222Z,12.85
2019-05-19T08:06:50.444Z,12.47
2019-05-19T08:09:25.148Z,12.25
2019-05-19T08:11:52.240Z,11.53
2019-05-19T08:14:19.688Z,13.48
2019-05-19T08:16:47.027Z,12.43
2019-05-19T08:19:14.282Z,13.45
2019-05-19T08:21:41.262Z,12.88
2019-05-19T08:24:08.292Z,12.25
2019-05-19T08:26:35.651Z,12.45
2019-05-19T08:29:03.079Z,11.68
2019-05-19T08:31:30.202Z,11.57
2019-05-19T08:33:57.432Z,11.03
2019-05-19T08:36:24.779Z,11.75
2019-05-19T08:38:51.831Z,11.78
2019-05-19T08:41:19.106Z,11.48
2019-05-19T08:43:46.112Z,11.90
2019-05-19T08:46:14.876Z,11.83
2019-05-19T08:48:41.856Z,11.83
2019-05-19T08:51:09.042Z,11.25
2019-05-19T08:53:36.099Z,10.80
2019-05-19T08:56:03.299Z,11.25
2019-05-19T08:58:30.250Z,10.82
2019-05-19T09:00:57.281Z,11.30
2019-05-19T09:03:24.776Z,11.25
2019-05-19T09:05:51.763Z,10.03
2019-05-19T09:08:18.871Z,10.82
2019-05-19T09:10:47.011Z,11.03
2019-05-19T09:13:14.031Z,11.53
2019-05-19T09:15:41.129Z,9.88
2019-05-19T09:18:08.258Z,10.70
2019-05-19T09:20:35.544Z,10.98
2019-05-19T09:23:02.652Z,13.10
2019-05-19T09:25:29.821Z,10.50
2019-05-19T09:27:56.923Z,10.58
2019-05-19T09:30:23.922Z,9.75
2019-05-19T09:32:51.231Z,11.45
2019-05-19T09:35:18.442Z,10.75
2019-05-19T09:37:45.428Z,11.85
2019-05-19T09:40:13.628Z,9.98
2019-05-19T09:42:40.712Z,12.68
2019-05-19T09:45:08.304Z,11.88
2019-05-19T09:47:35.408Z,10.58
2019-05-19T09:50:04.381Z,11.05
2019-05-19T09:52:31.415Z,11.03
2019-05-19T09:54:58.467Z,9.70
2019-05-19T09:57:25.927Z,10.95
2019-05-19T09:59:53.007Z,10.70
2019-05-19T10:02:20.092Z,9.55
2019-05-19T10:04:47.310Z,10.43
2019-05-19T10:07:14.347Z,10.80
2019-05-19T10:09:58.371Z,11.75
2019-05-19T10:12:25.828Z,9.20
2019-05-19T10:14:52.930Z,9.13
2019-05-19T10:17:20.156Z,9.38
2019-05-19T10:19:47.144Z,9.28
2019-05-19T10:22:14.596Z,9.95
2019-05-19T10:24:56.326Z,9.35
2019-05-19T10:27:10.900Z,10.45
2019-05-19T10:29:38.313Z,9.33
2019-05-19T10:32:05.491Z,9.58
2019-05-19T10:34:33.515Z,9.40
2019-05-19T10:37:00.499Z,9.73
2019-05-19T10:39:27.671Z,9.45
2019-05-19T10:41:54.744Z,9.78
2019-05-19T10:44:21.997Z,9.40
2019-05-19T10:46:49.271Z,9.70
2019-05-19T10:49:16.632Z,8.80
2019-05-19T10:51:43.719Z,8.35
2019-05-19T10:54:11.041Z,8.80
2019-05-19T10:56:38.052Z,9.35
2019-05-19T10:59:05.714Z,9.43
2019-05-19T11:01:33.155Z,8.70
2019-05-19T11:04:00.366Z,9.00
2019-05-19T11:06:27.736Z,8.88
2019-05-19T11:09:00.007Z,9.08
2019-05-19T11:11:27.059Z,8.18
2019-05-19T11:13:54.018Z,8.95
2019-05-19T11:16:21.229Z,7.75
2019-05-19T11:18:48.563Z,8.15
2019-05-19T11:21:15.755Z,7.30
2019-05-19T11:23:42.918Z,9.45
2019-05-19T11:26:10.279Z,8.28
2019-05-19T11:28:37.229Z,7.80
2019-05-19T11:31:04.806Z,8.00
2019-05-19T11:33:31.787Z,8.38
2019-05-19T11:35:59.134Z,8.70
2019-05-19T11:38:26.110Z,7.58
2019-05-19T11:40:53.086Z,7.62
2019-05-19T11:43:20.519Z,7.37
2019-05-19T11:45:47.591Z,7.62
2019-05-19T11:48:14.760Z,7.67
2019-05-19T11:50:42.348Z,8.35
2019-05-19T11:53:09.683Z,9.00
2019-05-19T11:55:37.233Z,9.00
2019-05-19T11:58:04.544Z,8.60
2019-05-19T12:00:31.704Z,8.58
2019-05-19T12:02:59.720Z,8.43
2019-05-19T12:05:27.224Z,7.95
2019-05-19T12:07:54.645Z,8.60
2019-05-19T12:10:21.722Z,8.75
2019-05-19T12:12:49.451Z,10.00
2019-05-19T12:15:17.033Z,9.45
2019-05-19T12:17:44.361Z,9.60
2019-05-19T12:20:11.982Z,9.30
2019-05-19T12:22:39.207Z,9.05
2019-05-19T12:25:07.639Z,10.25
2019-05-19T12:27:35.409Z,9.88
2019-05-19T12:30:03.042Z,8.80
2019-05-19T12:32:30.392Z,9.40
2019-05-19T12:34:57.612Z,8.45
2019-05-19T12:37:25.413Z,9.45
2019-05-19T12:39:52.467Z,9.13
2019-05-19T12:42:19.746Z,8.60
2019-05-19T12:44:47.121Z,7.58
2019-05-19T12:47:14.447Z,8.98
2019-05-19T12:49:41.496Z,7.92
2019-05-19T12:52:08.798Z,8.30
2019-05-19T12:54:36.380Z,8.73
2019-05-19T12:57:03.540Z,8.18
2019-05-19T12:59:30.642Z,8.73
2019-05-19T13:01:57.723Z,9.63
2019-05-19T13:04:26.058Z,8.40
2019-05-19T13:06:53.125Z,8.93
2019-05-19T13:09:20.151Z,9.90
2019-05-19T13:11:47.506Z,8.95
2019-05-19T13:14:14.899Z,8.55
2019-05-19T13:16:42.628Z,7.75
2019-05-19T13:19:09.748Z,8.60
2019-05-19T13:21:37.023Z,9.28
2019-05-19T13:24:04.103Z,8.78
2019-05-19T13:26:31.125Z,8.93
2019-05-19T13:28:58.422Z,8.03
2019-05-19T13:31:26.110Z,8.93
2019-05-19T13:33:53.179Z,9.33
2019-05-19T13:36:20.473Z,8.53
2019-05-19T13:38:47.484Z,9.40
2019-05-19T13:41:14.451Z,10.60
2019-05-19T13:43:41.523Z,9.18
2019-05-19T13:46:08.563Z,9.53
2019-05-19T13:48:35.671Z,8.78
2019-05-19T13:51:02.871Z,9.65
2019-05-19T13:53:29.828Z,8.18
2019-05-19T13:55:57.535Z,9.68
2019-05-19T13:58:24.498Z,10.03
2019-05-19T14:00:51.542Z,9.68
2019-05-19T14:03:18.605Z,9.63
2019-05-19T14:05:45.778Z,8.98
2019-05-19T14:08:13.067Z,11.65
2019-05-19T14:10:40.627Z,11.25
2019-05-19T14:13:07.636Z,10.32
2019-05-19T14:15:34.731Z,8.70
2019-05-19T14:18:02.035Z,10.35
2019-05-19T14:20:29.947Z,9.38
2019-05-19T14:22:57.172Z,9.30
2019-05-19T14:25:24.218Z,10.58
2019-05-19T14:27:51.265Z,9.30
2019-05-19T14:30:18.390Z,10.20
2019-05-19T14:32:45.663Z,9.68
2019-05-19T14:35:12.879Z,7.97
2019-05-19T14:37:39.934Z,10.10
2019-05-19T14:40:07.588Z,8.45
2019-05-19T14:42:48.671Z,8.83
2019-05-19T14:45:16.191Z,10.35
2019-05-19T14:47:43.611Z,9.75
2019-05-19T14:50:12.661Z,8.88
2019-05-19T14:52:39.647Z,9.18
2019-05-19T14:55:06.840Z,9.03
2019-05-19T14:57:44.272Z,8.60
2019-05-19T15:00:03.997Z,8.08
2019-05-19T15:02:31.237Z,9.15
2019-05-19T15:04:59.059Z,8.45
2019-05-19T15:07:25.996Z,8.28
2019-05-19T15:09:54.203Z,6.90
2019-05-19T15:12:21.320Z,8.40
2019-05-19T15:14:48.823Z,7.47
2019-05-19T15:17:16.206Z,7.78
2019-05-19T15:19:43.151Z,7.10
2019-05-19T15:22:10.147Z,8.03
2019-05-19T15:24:37.384Z,8.68
2019-05-19T15:27:04.506Z,8.38
2019-05-19T15:29:31.686Z,8.13
2019-05-19T15:31:58.696Z,8.15
2019-05-19T15:34:25.691Z,8.88
2019-05-19T15:36:52.705Z,7.67
2019-05-19T15:39:19.675Z,8.25
2019-05-19T15:41:46.650Z,9.15
2019-05-19T15:44:13.926Z,8.15
2019-05-19T15:46:40.952Z,8.53
2019-05-19T15:49:08.835Z,9.10
2019-05-19T15:51:37.960Z,9.70
2019-05-19T15:54:05.233Z,8.83
2019-05-19T15:56:32.326Z,8.73
2019-05-19T15:58:59.381Z,9.38
2019-05-19T16:01:26.662Z,10.05
2019-05-19T16:03:54.001Z,9.13
2019-05-19T16:06:21.102Z,9.53
2019-05-19T16:08:48.380Z,9.53
2019-05-19T16:11:15.365Z,9.18
2019-05-19T16:13:42.398Z,8.05
2019-05-19T16:16:10.172Z,7.92
2019-05-19T16:18:37.296Z,7.97
2019-05-19T16:21:04.328Z,6.75
2019-05-19T16:23:31.756Z,7.55
2019-05-19T16:25:59.482Z,8.08
2019-05-19T16:28:30.765Z,7.47
2019-05-19T16:30:56.875Z,7.55
2019-05-19T16:33:24.044Z,7.95
2019-05-19T16:35:51.786Z,8.23
2019-05-19T16:38:20.288Z,8.65
2019-05-19T16:40:47.459Z,8.60
2019-05-19T16:43:14.808Z,7.25
2019-05-19T16:45:42.080Z,6.78
2019-05-19T16:48:09.567Z,7.20
2019-05-19T16:50:36.676Z,8.05
2019-05-19T16:53:03.762Z,8.28
2019-05-19T16:55:33.144Z,8.25
2019-05-19T16:58:00.658Z,8.15
2019-05-19T17:00:28.754Z,7.03
2019-05-19T17:02:57.379Z,7.40
2019-05-19T17:05:24.523Z,7.97
2019-05-19T17:07:51.582Z,8.10
2019-05-19T17:10:18.857Z,7.35
2019-05-19T17:12:45.874Z,7.00
2019-05-19T17:15:14.976Z,8.55
2019-05-19T17:17:42.024Z,8.08
2019-05-19T17:20:09.584Z,9.35
2019-05-19T17:22:37.082Z,8.80
2019-05-19T17:25:04.411Z,9.43
2019-05-19T17:27:31.500Z,8.08
2019-05-19T17:29:58.514Z,8.48
2019-05-19T17:32:27.118Z,7.58
2019-05-19T17:34:54.103Z,8.43
2019-05-19T17:37:21.662Z,7.72
2019-05-19T17:39:48.655Z,9.28
2019-05-19T17:42:15.761Z,10.30
2019-05-19T17:44:43.326Z,9.70
2019-05-19T17:47:10.836Z,10.00
2019-05-19T17:49:38.100Z,10.32
2019-05-19T17:52:06.379Z,9.20
2019-05-19T17:54:33.386Z,9.25
2019-05-19T17:57:01.585Z,10.23
2019-05-19T17:59:30.580Z,9.88
2019-05-19T18:01:57.667Z,10.08
2019-05-19T18:04:24.676Z,9.23
2019-05-19T18:06:51.742Z,8.53
2019-05-19T18:09:19.014Z,9.83
2019-05-19T18:11:46.023Z,10.00
2019-05-19T18:14:13.050Z,9.18
2019-05-19T18:16:40.124Z,10.23
2019-05-19T18:19:07.271Z,9.40
2019-05-19T18:21:34.650Z,10.13
2019-05-19T18:24:02.119Z,9.13
2019-05-19T18:26:29.257Z,10.08
2019-05-19T18:28:56.354Z,10.78
2019-05-19T18:31:23.476Z,12.07
2019-05-19T18:33:50.521Z,11.22
2019-05-19T18:36:17.552Z,9.68
2019-05-19T18:38:44.558Z,10.43
2019-05-19T18:41:11.555Z,10.98
2019-05-19T18:43:39.127Z,10.82
2019-05-19T18:46:06.332Z,11.60
2019-05-19T18:48:33.403Z,14.07
2019-05-19T18:51:00.347Z,11.80
2019-05-19T18:53:27.338Z,10.63
2019-05-19T18:55:54.649Z,12.93
2019-05-19T18:58:21.740Z,11.55
2019-05-19T19:00:48.927Z,11.73
2019-05-19T19:03:16.204Z,12.50
2019-05-19T19:05:43.198Z,12.88
2019-05-19T19:08:10.250Z,12.63
2019-05-19T19:10:37.783Z,13.05
2019-05-19T19:13:05.305Z,12.40
2019-05-19T19:15:32.789Z,12.00
2019-05-19T19:17:59.875Z,14.68
2019-05-19T19:20:26.856Z,12.10
2019-05-19T19:22:53.947Z,11.95
2019-05-19T19:25:20.956Z,13.48
2019-05-19T19:27:48.535Z,12.88
2019-05-19T19:30:16.172Z,13.03
2019-05-19T19:32:43.583Z,13.95
2019-05-19T19:35:10.996Z,13.45
2019-05-19T19:37:38.035Z,13.05
2019-05-19T19:40:06.079Z,13.18
2019-05-19T19:42:34.535Z,13.88
2019-05-19T19:45:01.532Z,14.80
2019-05-19T19:47:28.727Z,13.98
2019-05-19T19:49:55.726Z,14.50
2019-05-19T19:52:23.055Z,13.45
2019-05-19T19:54:50.028Z,14.43
2019-05-19T19:57:17.268Z,13.50
2019-05-19T19:59:44.334Z,14.53
2019-05-19T20:02:11.635Z,15.13
2019-05-19T20:04:38.670Z,15.65
2019-05-19T20:07:05.627Z,17.00
2019-05-19T20:09:33.052Z,15.68
2019-05-19T20:12:00.141Z,17.80
2019-05-19T20:14:27.384Z,14.70
2019-05-19T20:16:54.384Z,16.17
2019-05-19T20:19:21.587Z,15.38
2019-05-19T20:21:48.658Z,15.03
2019-05-19T20:24:15.656Z,15.08
2019-05-19T20:26:42.787Z,15.98
2019-05-19T20:29:11.215Z,17.42
2019-05-19T20:31:38.393Z,17.80
2019-05-19T20:34:06.090Z,15.85
2019-05-19T20:36:33.110Z,15.63
2019-05-19T20:39:01.175Z,16.07
2019-05-19T20:41:30.313Z,16.95
2019-05-19T20:43:57.307Z,16.77
2019-05-19T20:46:24.265Z,20.97
2019-05-19T20:48:51.354Z,16.55
2019-05-19T20:51:18.470Z,19.05
2019-05-19T20:53:45.585Z,19.55
2019-05-19T20:56:12.615Z,18.98
2019-05-19T20:58:39.718Z,30.20
2019-05-19T21:01:06.837Z,19.32
2019-05-19T21:03:34.272Z,25.55
2019-05-19T21:06:02.081Z,17.82
2019-05-19T21:08:29.500Z,18.90
2019-05-19T21:10:56.527Z,19.30
2019-05-19T21:13:23.945Z,19.12
2019-05-19T21:15:50.935Z,21.52
2019-05-19T21:18:18.011Z,20.77
2019-05-19T21:20:45.452Z,19.98
2019-05-19T21:23:12.421Z,20.10
2019-05-19T21:25:39.726Z,20.70
2019-05-19T21:28:07.067Z,25.12
2019-05-19T21:30:34.060Z,22.30
2019-05-19T21:33:01.413Z,21.48
2019-05-19T21:35:28.372Z,22.70
2019-05-19T21:37:56.625Z,23.10
2019-05-19T21:40:23.731Z,24.15
2019-05-19T21:42:50.694Z,23.90
2019-05-19T21:45:18.072Z,23.98
2019-05-19T21:47:45.208Z,23.02
2019-05-19T21:50:12.801Z,21.20
2019-05-19T21:52:40.051Z,19.92
2019-05-19T21:55:07.611Z,21.20
2019-05-19T21:57:34.581Z,20.70
2019-05-19T22:00:01.802Z,21.10
2019-05-19T22:02:29.372Z,22.13
2019-05-19T22:04:56.454Z,20.95
2019-05-19T22:07:33.809Z,22.02
2019-05-19T22:10:00.869Z,19.90
2019-05-19T22:12:27.927Z,23.55
2019-05-19T22:14:55.980Z,21.82
2019-05-19T22:17:23.347Z,19.82
2019-05-19T22:19:50.322Z,22.82
2019-05-19T22:22:17.551Z,23.18
2019-05-19T22:24:44.536Z,22.75
2019-05-19T22:27:11.490Z,24.43
2019-05-19T22:29:38.772Z,23.25
2019-05-19T22:32:05.730Z,23.60
2019-05-19T22:34:33.106Z,24.18
2019-05-19T22:37:00.491Z,22.05
2019-05-19T22:39:28.114Z,24.63
2019-05-19T22:41:55.182Z,21.75
2019-05-19T22:44:22.410Z,24.37
2019-05-19T22:46:49.412Z,22.62
2019-05-19T22:49:16.369Z,23.22
2019-05-19T22:51:43.374Z,25.62
2019-05-19T22:54:10.335Z,26.65
2019-05-19T22:56:37.400Z,25.95
2019-05-19T22:59:17.555Z,23.60
2019-05-19T23:01:33.537Z,25.45
2019-05-19T23:04:00.862Z,24.87
2019-05-19T23:06:28.183Z,26.95
2019-05-19T23:08:56.576Z,25.60
2019-05-19T23:11:23.858Z,26.20
2019-05-19T23:13:50.870Z,24.40
2019-05-19T23:16:18.164Z,26.33
2019-05-19T23:18:45.199Z,27.73
2019-05-19T23:21:12.165Z,26.93
2019-05-19T23:23:39.214Z,27.55
2019-05-19T23:26:06.302Z,28.12
2019-05-19T23:28:34.012Z,28.57
2019-05-19T23:31:01.275Z,27.35
2019-05-19T23:33:28.486Z,25.97
2019-05-19T23:35:55.474Z,29.45
2019-05-19T23:38:22.427Z,26.45
2019-05-19T23:40:49.777Z,27.52
2019-05-19T23:43:16.787Z,27.80
2019-05-19T23:45:43.779Z,27.93
2019-05-19T23:48:10.779Z,30.40
2019-05-19T23:50:37.866Z,28.85
2019-05-19T23:53:04.819Z,28.25
2019-05-19T23:55:32.072Z,27.20
2019-05-19T23:57:59.554Z,27.60
